createdAt,value
2022-09-01T00:02:07.023Z,66.00
2022-09-01T00:06:11.708Z,66.00
2022-09-01T00:10:14.480Z,66.10
2022-09-01T00:14:29.987Z,66.10
2022-09-01T00:18:33.487Z,66.20
2022-09-01T00:22:36.604Z,66.60
2022-09-01T00:26:39.427Z,67.60
2022-09-01T00:30:42.277Z,67.80
2022-09-01T00:34:45.060Z,67.90
2022-09-01T00:38:48.809Z,67.70
2022-09-01T00:42:53.804Z,67.40
2022-09-01T00:46:57.319Z,67.70
2022-09-01T00:51:01.177Z,67.30
2022-09-01T00:55:14.798Z,67.30
2022-09-01T00:59:20.046Z,67.50
2022-09-01T01:03:24.103Z,67.10
2022-09-01T01:07:28.524Z,67.20
2022-09-01T01:11:32.450Z,67.40
2022-09-01T01:15:36.379Z,67.50
2022-09-01T01:20:13.407Z,67.70
2022-09-01T01:24:34.533Z,67.30
2022-09-01T01:28:42.037Z,67.60
2022-09-01T01:32:45.758Z,68.30
2022-09-01T01:36:50.656Z,68.30
2022-09-01T01:40:54.488Z,68.40
2022-09-01T01:44:58.589Z,68.40
2022-09-01T01:49:02.814Z,68.70
2022-09-01T01:53:11.416Z,68.40
2022-09-01T01:57:17.921Z,68.60
2022-09-01T02:01:25.425Z,68.60
2022-09-01T02:05:32.236Z,68.90
2022-09-01T02:09:35.170Z,69.00
2022-09-01T02:13:37.991Z,69.00
2022-09-01T02:17:41.449Z,69.20
2022-09-01T02:21:44.748Z,69.10
2022-09-01T02:26:14.157Z,69.30
2022-09-01T02:30:12.887Z,69.50
2022-09-01T02:34:16.846Z,69.40
2022-09-01T02:38:21.299Z,69.10
2022-09-01T02:42:27.602Z,68.80
2022-09-01T02:46:30.987Z,69.20
2022-09-01T02:50:34.583Z,69.40
2022-09-01T02:54:37.321Z,69.50
2022-09-01T02:58:46.164Z,69.60
2022-09-01T03:02:53.213Z,70.00
2022-09-01T03:06:58.921Z,69.90
2022-09-01T03:11:02.072Z,69.60
2022-09-01T03:15:06.613Z,69.70
2022-09-01T03:19:12.423Z,70.00
2022-09-01T03:23:19.213Z,70.00
2022-09-01T03:27:23.204Z,70.10
2022-09-01T03:31:31.072Z,70.20
2022-09-01T03:35:37.237Z,70.50
2022-09-01T03:39:39.955Z,70.60
2022-09-01T03:43:46.943Z,70.90
2022-09-01T03:47:52.822Z,70.90
2022-09-01T03:51:58.383Z,70.80
2022-09-01T03:56:04.177Z,71.00
2022-09-01T04:00:13.390Z,71.10
2022-09-01T04:04:17.106Z,71.30
2022-09-01T04:08:23.050Z,71.70
2022-09-01T04:12:25.971Z,71.80
2022-09-01T04:16:50.698Z,71.50
2022-09-01T04:20:56.899Z,71.20
2022-09-01T04:25:02.284Z,71.00
2022-09-01T04:29:07.056Z,70.80
2022-09-01T04:33:10.414Z,71.00
2022-09-01T04:37:18.252Z,71.00
2022-09-01T04:41:25.759Z,70.90
2022-09-01T04:45:29.273Z,70.80
2022-09-01T04:49:33.786Z,70.60
2022-09-01T04:53:38.246Z,70.70
2022-09-01T04:57:47.252Z,70.70
2022-09-01T05:01:50.911Z,71.10
2022-09-01T05:05:58.402Z,70.60
2022-09-01T05:10:02.289Z,70.60
2022-09-01T05:14:20.707Z,70.80
2022-09-01T05:18:24.415Z,70.60
2022-09-01T05:22:27.564Z,70.20
2022-09-01T05:26:41.110Z,70.50
2022-09-01T05:30:45.530Z,70.40
2022-09-01T05:34:49.154Z,70.50
2022-09-01T05:38:52.519Z,70.50
2022-09-01T05:42:56.294Z,70.10
2022-09-01T05:47:00.236Z,69.40
2022-09-01T05:51:27.562Z,68.70
2022-09-01T05:55:35.801Z,68.40
2022-09-01T05:59:41.235Z,68.00
2022-09-01T06:03:54.789Z,68.10
2022-09-01T06:08:00.864Z,67.70
2022-09-01T06:12:03.814Z,67.20
2022-09-01T06:16:08.370Z,66.90
2022-09-01T06:20:11.291Z,66.30
2022-09-01T06:24:18.137Z,65.60
2022-09-01T06:28:22.579Z,65.00
2022-09-01T06:32:27.223Z,64.60
2022-09-01T06:36:36.600Z,64.50
2022-09-01T06:40:42.654Z,64.30
2022-09-01T06:44:47.391Z,64.10
2022-09-01T06:48:50.601Z,63.80
2022-09-01T07:12:08.154Z,65.20
2022-09-01T07:19:56.378Z,65.10
2022-09-01T07:24:10.665Z,65.10
2022-09-01T07:28:19.029Z,65.10
2022-09-01T07:39:57.367Z,64.60
2022-09-01T07:45:59.773Z,64.90
2022-09-01T07:50:24.663Z,64.70
2022-09-01T07:54:30.492Z,64.30
2022-09-01T07:58:34.317Z,64.40
2022-09-01T08:02:47.097Z,64.10
2022-09-01T08:06:51.702Z,64.10
2022-09-01T08:11:03.985Z,62.60
2022-09-01T08:19:32.748Z,61.10
2022-09-01T08:23:48.319Z,60.50
2022-09-01T08:27:59.818Z,60.80
2022-09-01T08:32:04.691Z,59.30
2022-09-01T08:36:11.387Z,58.20
2022-09-01T08:40:19.461Z,57.70
2022-09-01T08:44:47.097Z,57.50
2022-09-01T08:49:24.135Z,55.80
2022-09-01T08:54:40.150Z,55.10
2022-09-01T08:58:46.684Z,55.60
2022-09-01T09:03:17.086Z,53.30
2022-09-01T09:07:39.512Z,54.30
2022-09-01T09:12:02.988Z,53.70
2022-09-01T09:16:51.647Z,53.80
2022-09-01T09:21:04.044Z,54.70
2022-09-01T09:25:19.425Z,53.40
2022-09-01T09:29:27.287Z,53.80
2022-09-01T09:33:51.377Z,52.00
2022-09-01T09:37:57.093Z,52.80
2022-09-01T09:42:10.296Z,52.40
2022-09-01T09:46:30.362Z,51.90
2022-09-01T09:50:34.441Z,51.70
2022-09-01T09:55:01.019Z,50.10
2022-09-01T09:59:57.114Z,50.20
2022-09-01T10:04:04.383Z,49.20
2022-09-01T10:08:27.428Z,48.30
2022-09-01T10:12:32.477Z,47.70
2022-09-01T10:16:40.361Z,46.70
2022-09-01T10:21:00.714Z,46.00
2022-09-01T10:25:13.724Z,45.90
2022-09-01T10:29:27.355Z,45.60
2022-09-01T10:33:30.202Z,44.30
2022-09-01T10:37:34.503Z,43.80
2022-09-01T10:42:00.709Z,43.50
2022-09-01T10:46:26.223Z,43.80
2022-09-01T10:50:35.374Z,45.10
2022-09-01T10:54:51.309Z,43.10
2022-09-01T10:59:35.586Z,43.60
2022-09-01T11:03:57.458Z,44.60
2022-09-01T11:08:20.580Z,44.30
2022-09-01T11:12:46.304Z,44.90
2022-09-01T11:17:14.382Z,45.80
2022-09-01T11:21:33.238Z,46.10
2022-09-01T11:25:45.392Z,46.70
2022-09-01T11:30:09.710Z,47.10
2022-09-01T11:34:21.275Z,46.80
2022-09-01T11:38:25.677Z,46.80
2022-09-01T11:42:43.727Z,45.80
2022-09-01T11:46:51.985Z,46.40
2022-09-01T11:51:01.778Z,45.60
2022-09-01T11:55:06.963Z,45.50
2022-09-01T11:59:09.888Z,44.90
2022-09-01T12:03:29.982Z,44.50
2022-09-01T12:07:45.058Z,44.30
2022-09-01T12:11:48.971Z,44.10
2022-09-01T12:16:18.462Z,42.30
2022-09-01T12:20:32.535Z,41.80
2022-09-01T12:24:37.116Z,44.60
2022-09-01T12:28:41.814Z,48.60
2022-09-01T12:32:44.821Z,53.10
2022-09-01T12:37:05.090Z,56.50
2022-09-01T12:41:35.398Z,55.70
2022-09-01T12:45:41.163Z,57.90
2022-09-01T12:49:50.821Z,61.30
2022-09-01T12:54:04.885Z,61.50
2022-09-01T12:58:09.871Z,61.80
2022-09-01T13:02:37.846Z,63.50
2022-09-01T13:06:40.905Z,62.00
2022-09-01T13:10:47.545Z,65.20
2022-09-01T13:14:51.389Z,66.30
2022-09-01T13:19:11.087Z,66.80
2022-09-01T13:23:14.457Z,67.00
2022-09-01T13:27:21.088Z,66.30
2022-09-01T13:31:32.490Z,65.10
2022-09-01T13:35:35.706Z,63.10
2022-09-01T13:39:38.427Z,62.80
2022-09-01T13:43:41.450Z,60.80
2022-09-01T13:52:13.161Z,61.80
2022-09-01T13:56:16.094Z,59.50
2022-09-01T14:00:24.290Z,58.90
2022-09-01T14:04:28.311Z,59.10
2022-09-01T14:08:31.431Z,58.40
2022-09-01T14:12:34.853Z,59.50
2022-09-01T14:16:41.437Z,60.20
2022-09-01T14:20:48.949Z,60.40
2022-09-01T14:24:52.535Z,59.50
2022-09-01T14:28:56.014Z,59.70
2022-09-01T14:33:00.979Z,59.00
2022-09-01T14:37:05.037Z,59.50
2022-09-01T14:41:07.716Z,58.90
2022-09-01T14:45:16.054Z,60.40
2022-09-01T14:49:22.458Z,60.20
2022-09-01T14:53:25.475Z,58.00
2022-09-01T14:57:37.007Z,56.70
2022-09-01T15:01:40.860Z,56.30
2022-09-01T15:05:43.605Z,56.90
2022-09-01T15:09:46.665Z,56.80
2022-09-01T15:13:52.164Z,55.90
2022-09-01T15:17:56.378Z,55.40
2022-09-01T15:21:59.844Z,55.40
2022-09-01T15:26:03.273Z,56.00
2022-09-01T15:30:13.147Z,55.20
2022-09-01T15:34:18.192Z,54.80
2022-09-01T15:38:21.306Z,54.20
2022-09-01T15:42:24.279Z,55.20
2022-09-01T15:46:33.848Z,55.20
2022-09-01T15:50:36.769Z,55.10
2022-09-01T15:54:39.791Z,54.90
2022-09-01T15:59:00.101Z,54.20
2022-09-01T16:03:04.630Z,53.40
2022-09-01T16:07:08.081Z,52.60
2022-09-01T16:11:14.001Z,52.00
2022-09-01T16:15:20.254Z,52.00
2022-09-01T16:19:47.241Z,50.10
2022-09-01T16:23:52.136Z,52.20
2022-09-01T16:27:56.292Z,50.50
2022-09-01T16:32:01.509Z,50.70
2022-09-01T16:36:24.479Z,49.80
2022-09-01T16:40:56.489Z,49.00
2022-09-01T16:45:12.603Z,50.00
2022-09-01T16:49:32.723Z,49.40
2022-09-01T16:53:50.187Z,50.40
2022-09-01T16:58:31.785Z,47.80
2022-09-01T17:02:49.893Z,46.90
2022-09-01T17:06:52.899Z,45.90
2022-09-01T17:11:14.943Z,46.40
2022-09-01T17:15:24.157Z,47.80
2022-09-01T17:19:28.096Z,48.80
2022-09-01T17:23:38.020Z,49.60
2022-09-01T17:28:02.201Z,50.60
2022-09-01T17:32:50.568Z,50.90
2022-09-01T17:37:23.288Z,51.70
2022-09-01T17:42:11.504Z,52.40
2022-09-01T17:46:34.387Z,53.00
2022-09-01T17:50:37.335Z,53.70
2022-09-01T17:55:00.446Z,54.60
2022-09-01T17:59:33.967Z,54.40
2022-09-01T18:04:06.155Z,54.90
2022-09-01T18:08:20.016Z,54.90
2022-09-01T18:12:29.086Z,56.10
2022-09-01T18:16:43.634Z,56.50
2022-09-01T18:20:48.754Z,56.70
2022-09-01T18:25:09.208Z,57.00
2022-09-01T18:29:15.312Z,56.80
2022-09-01T18:33:49.318Z,57.30
2022-09-01T18:38:16.497Z,57.20
2022-09-01T18:42:38.742Z,57.50
2022-09-01T18:46:56.522Z,57.20
2022-09-01T18:51:30.329Z,58.40
2022-09-01T18:55:36.008Z,58.10
2022-09-01T18:59:47.712Z,58.90
2022-09-01T19:04:16.465Z,58.70
2022-09-01T19:08:56.834Z,58.40
2022-09-01T19:13:18.082Z,58.30
2022-09-01T19:17:39.381Z,58.60
2022-09-01T19:21:44.484Z,58.30
2022-09-01T19:25:48.375Z,58.70
2022-09-01T19:29:59.425Z,58.70
2022-09-01T19:34:18.229Z,59.10
2022-09-01T19:38:27.775Z,58.90
2022-09-01T19:42:40.181Z,59.30
2022-09-01T19:47:00.293Z,59.40
2022-09-01T19:51:29.721Z,59.50
2022-09-01T19:55:37.403Z,59.10
2022-09-01T19:59:47.495Z,59.80
2022-09-01T20:03:55.917Z,60.20
2022-09-01T20:08:01.804Z,60.20
2022-09-01T20:12:21.902Z,60.20
2022-09-01T20:16:35.425Z,60.40
2022-09-01T20:20:45.198Z,60.20
2022-09-01T20:24:47.929Z,60.50
2022-09-01T20:29:46.006Z,60.50
2022-09-01T20:34:08.013Z,60.20
2022-09-01T20:38:48.074Z,60.80
2022-09-01T20:43:12.638Z,61.10
2022-09-01T20:47:15.505Z,61.00
2022-09-01T20:51:38.452Z,61.50
2022-09-01T20:55:53.852Z,61.50
2022-09-01T21:00:02.557Z,61.60
2022-09-01T21:04:30.185Z,62.10
2022-09-01T21:08:45.146Z,61.80
2022-09-01T21:12:52.949Z,62.90
2022-09-01T21:17:00.446Z,63.10
2022-09-01T21:21:36.173Z,63.30
2022-09-01T21:25:59.291Z,63.20
2022-09-01T21:30:14.844Z,63.80
2022-09-01T21:34:17.590Z,64.10
2022-09-01T21:38:20.365Z,64.20
2022-09-01T21:43:08.491Z,64.30
2022-09-01T21:47:13.129Z,63.80
2022-09-01T21:51:15.862Z,64.40
2022-09-01T21:55:23.350Z,64.60
2022-09-01T21:59:26.813Z,64.60
2022-09-01T22:03:31.159Z,64.60
2022-09-01T22:07:38.870Z,64.70
2022-09-01T22:11:42.404Z,64.60
2022-09-01T22:15:48.287Z,64.90
2022-09-01T22:19:52.939Z,64.80
2022-09-01T22:23:55.657Z,64.80
2022-09-01T22:28:00.560Z,65.00
2022-09-01T22:32:04.135Z,64.90
2022-09-01T22:36:07.570Z,64.60
2022-09-01T22:40:11.890Z,64.60
2022-09-01T22:44:14.641Z,64.30
2022-09-01T22:48:19.280Z,64.50
2022-09-01T22:52:47.215Z,64.20
2022-09-01T22:56:52.732Z,64.00
2022-09-01T23:01:00.820Z,64.20
2022-09-01T23:05:06.233Z,64.00
2022-09-01T23:09:09.181Z,63.90
2022-09-01T23:13:11.872Z,63.90
2022-09-01T23:17:14.960Z,63.90
2022-09-01T23:21:21.039Z,64.00
2022-09-01T23:25:24.447Z,64.10
2022-09-01T23:29:27.201Z,64.20
2022-09-01T23:33:31.953Z,64.50
2022-09-01T23:37:34.799Z,64.50
2022-09-01T23:41:38.729Z,64.70
2022-09-01T23:45:43.817Z,64.70
2022-09-01T23:49:46.588Z,64.70
2022-09-01T23:53:49.529Z,64.70
2022-09-01T23:57:52.333Z,64.70
